Terminal Aerodrome Forecast
Issued by NWS

Home | Current Version | Previous Version | Graphics & Text | Print | Product List | Glossary On
Versions: 1 2 3 4 5 6 7 8 9 10 11 12 13 14 15 16 17 18 19 20 21 22 23 24 25 26 27 28 29 30 31 32 33 34
000
FTUS43 KLOT 240200 AAA
TAFORD
TAF AMD
KORD 240257Z 2403/2506 21005KT P6SM SCT025 OVC120
     FM240600 34004KT P6SM OVC100
     FM241000 36008KT 6SM BR VCSH OVC050
     FM241400 36013G22KT 4SM RA BR SCT008 OVC015 PROB30 2416/2418
      1/2SM SNRA OVC008
     FM241800 31016G25KT 1SM -SN BR OVC006
      TEMPO 2418/2422 1/2SM SN FG VV003
     FM250100 28014KT 3SM BR OVC007=

USA.gov is the U.S. government's official web portal to all federal, state and local government web resources and services.